Time;durP1;ratioP1;P1;durP2;ratioP2;P2;SDS_P1;SDS_P2;PMS_P1;PMS_P2;Temp;Humidity;BMP_temperature;BMP_pressure;BME280_temperature;BME280_humidity;BME280_pressure;Samples;Min_cycle;Max_cycle;Signal;HPM_P1;HPM_P2
2021/01/17 00:00:22;;;;;;;19.27;10.32;;;;;;;-1.29;73.36;100240.71;2171741;81;27687;-71
2021/01/17 00:03:26;;;;;;;;;;;;;;;-1.30;73.29;100239.84;2178424;81;27704;-67
2021/01/17 00:06:29;;;;;;;16.05;8.70;;;;;;;-1.29;73.33;100241.60;2175835;81;31166;-69
2021/01/17 00:09:32;;;;;;;17.92;8.88;;;;;;;-1.30;73.26;100240.27;2204206;80;33561;-69
2021/01/17 00:12:34;;;;;;;20.30;10.10;;;;;;;-1.29;73.31;100245.97;2138323;83;29170;-71
2021/01/17 00:15:37;;;;;;;23.47;9.55;;;;;;;-1.31;73.20;100249.92;2138643;83;27667;-67
2021/01/17 00:18:39;;;;;;;18.82;9.53;;;;;;;-1.28;73.36;100252.98;2138441;83;29727;-69
2021/01/17 00:21:45;;;;;;;26.57;11.40;;;;;;;-1.30;73.12;100250.36;2138437;83;31223;-71
2021/01/17 00:24:47;;;;;;;25.23;9.75;;;;;;;-1.32;73.15;100248.17;2166692;81;33107;-67
2021/01/17 00:27:51;;;;;;;17.48;8.83;;;;;;;-1.31;73.12;100252.55;2175042;81;29171;-68
2021/01/17 00:30:53;;;;;;;18.50;7.67;;;;;;;-1.34;73.10;100259.12;2158828;81;27685;-69
2021/01/17 00:33:55;;;;;;;15.38;7.97;;;;;;;-1.34;73.05;100248.61;2136162;83;28801;-69
2021/01/17 00:36:57;;;;;;;17.35;7.95;;;;;;;-1.36;73.00;100246.42;2175400;81;31144;-70
2021/01/17 00:40:00;;;;;;;13.03;6.83;;;;;;;-1.39;73.03;100252.56;2136121;82;33455;-66
2021/01/17 00:43:02;;;;;;;19.35;7.70;;;;;;;-1.39;72.97;100247.73;2173108;81;30148;-70
2021/01/17 00:46:04;;;;;;;16.30;7.60;;;;;;;-1.43;73.03;100250.81;2173798;81;27629;-70
2021/01/17 00:49:07;;;;;;;17.85;8.35;;;;;;;-1.43;73.00;100252.12;2173690;81;29778;-68
2021/01/17 00:52:11;;;;;;;18.32;7.58;;;;;;;-1.43;73.08;100254.75;2173748;81;31146;-66
2021/01/17 00:55:13;;;;;;;15.00;7.80;;;;;;;-1.39;73.03;100252.98;2171808;81;32985;-68
2021/01/17 00:58:15;;;;;;;17.15;8.33;;;;;;;-1.38;73.04;100255.63;2172663;81;29169;-67
2021/01/17 01:01:18;;;;;;;16.07;7.10;;;;;;;-1.36;73.09;100257.38;2120993;81;27675;-70
2021/01/17 01:04:20;;;;;;;15.03;7.60;;;;;;;-1.36;73.06;100256.07;2118467;84;29709;-64
2021/01/17 01:07:24;;;;;;;23.27;9.83;;;;;;;-1.33;73.12;100268.76;2136220;83;32027;-65
2021/01/17 01:10:26;;;;;;;21.23;10.05;;;;;;;-1.32;73.00;100271.83;2104936;84;34103;-66
2021/01/17 01:13:28;;;;;;;17.48;8.93;;;;;;;-1.34;72.92;100261.75;2111454;83;29598;-68
2021/01/17 01:16:31;;;;;;;16.17;9.30;;;;;;;-1.34;72.87;100261.75;2117803;84;27679;-68
2021/01/17 01:19:33;;;;;;;16.00;7.92;;;;;;;-1.36;72.93;100254.76;2118436;82;29760;-69
2021/01/17 01:22:41;;;;;;;16.70;8.03;;;;;;;-1.35;73.09;100255.20;2146345;82;31168;-66
2021/01/17 01:25:43;;;;;;;14.75;7.42;;;;;;;-1.32;72.95;100257.37;2153700;82;33119;-65
2021/01/17 01:28:45;;;;;;;23.38;11.05;;;;;;;-1.36;72.68;100274.47;2153737;82;29932;-69
2021/01/17 01:31:47;;;;;;;31.27;16.35;;;;;;;-1.45;72.21;100277.97;2154158;82;27637;-71
2021/01/17 01:34:49;;;;;;;32.95;16.65;;;;;;;-1.62;71.78;100276.66;2153341;82;28598;-65
2021/01/17 01:37:52;;;;;;;34.38;14.87;;;;;;;-1.79;71.38;100281.46;2155424;79;30752;-69
2021/01/17 01:40:56;;;;;;;32.50;18.87;;;;;;;-1.92;71.51;100279.28;2221384;80;33124;-65
2021/01/17 01:43:59;;;;;;;32.75;15.80;;;;;;;-2.05;71.13;100287.57;2214360;80;35393;-68
2021/01/17 01:47:03;;;;;;;33.23;16.73;;;;;;;-2.29;70.93;100293.19;2214354;80;27659;-70
2021/01/17 01:50:07;;;;;;;33.05;16.07;;;;;;;-2.50;71.08;100295.31;2170954;81;28976;-70
2021/01/17 01:53:10;;;;;;;37.80;19.03;;;;;;;-2.69;71.31;100293.48;2169079;81;32120;-66
2021/01/17 01:56:14;;;;;;;32.40;15.13;;;;;;;-2.79;71.32;100294.77;2149658;82;33131;-69
2021/01/17 01:59:16;;;;;;;28.52;15.63;;;;;;;-2.94;70.89;100290.75;2149659;82;29196;-65
2021/01/17 02:02:19;;;;;;;36.25;17.37;;;;;;;-3.10;71.12;100295.91;2141095;81;27686;-69
2021/01/17 02:05:21;;;;;;;30.25;14.63;;;;;;;-3.19;71.15;100300.20;2131677;83;28620;-64
2021/01/17 02:09:18;;;;;;;35.78;16.05;;;;;;;-3.28;71.28;100301.88;2131553;83;31183;-64
2021/01/17 02:12:30;;;;;;;33.02;16.95;;;;;;;-3.35;71.27;100307.96;2131527;83;32934;-64
2021/01/17 02:15:38;;;;;;;34.20;16.17;;;;;;;-3.43;71.47;100310.94;2131723;83;29040;-70
2021/01/17 02:18:42;;;;;;;29.55;14.73;;;;;;;-3.46;71.39;100306.56;2131552;83;27685;-67
2021/01/17 02:21:50;;;;;;;31.30;13.13;;;;;;;-3.50;71.36;100317.88;2172269;81;32973;-67
2021/01/17 02:25:06;;;;;;;33.20;13.93;;;;;;;-3.53;71.25;100319.16;2156100;82;31132;-69
2021/01/17 02:28:15;;;;;;;26.55;11.88;;;;;;;-3.56;71.03;100329.18;2157159;82;34172;-68
2021/01/17 02:31:19;;;;;;;25.50;12.00;;;;;;;-3.63;70.69;100323.88;2127719;82;30142;-67
2021/01/17 02:34:26;;;;;;;21.82;11.10;;;;;;;-3.72;70.43;100328.16;2152144;82;27734;-70
2021/01/17 02:37:59;;;;;;;22.00;11.80;;;;;;;-3.80;70.14;100331.59;2157029;82;28804;-63
2021/01/17 02:41:30;;;;;;;20.75;10.25;;;;;;;-3.86;70.58;100339.82;2170411;81;31156;-63
2021/01/17 02:44:34;;;;;;;24.12;10.15;;;;;;;-3.86;70.04;100337.20;2176776;81;33103;-66
2021/01/17 02:47:37;;;;;;;20.45;9.88;;;;;;;-3.97;68.58;100338.40;2206965;80;29162;-64
2021/01/17 02:50:39;;;;;;;25.50;10.78;;;;;;;-4.09;69.34;100342.20;2216450;80;28072;-69
2021/01/17 02:53:50;;;;;;;20.23;9.95;;;;;;;-4.18;69.28;100345.59;2217150;80;28800;-67
2021/01/17 02:56:59;;;;;;;23.32;10.48;;;;;;;-4.27;68.74;100345.05;2183536;80;31139;-65
2021/01/17 03:00:09;;;;;;;20.62;9.88;;;;;;;-4.38;68.68;100351.88;2213785;80;33346;-69
2021/01/17 03:03:14;;;;;;;20.68;10.05;;;;;;;-4.44;69.08;100338.30;2208712;80;29142;-67
2021/01/17 03:06:17;;;;;;;22.25;10.08;;;;;;;-4.47;69.02;100341.31;2178281;80;27651;-66
2021/01/17 03:09:20;;;;;;;19.07;10.08;;;;;;;-4.49;69.42;100340.00;2178646;81;28807;-65
2021/01/17 03:12:23;;;;;;;17.30;8.78;;;;;;;-4.44;69.67;100339.61;2178513;81;31551;-65
2021/01/17 03:15:25;;;;;;;19.65;9.53;;;;;;;-4.40;69.32;100347.50;2180253;79;33152;-70
2021/01/17 03:18:27;;;;;;;19.65;9.53;;;;;;;-4.47;68.79;100353.98;2169842;80;28430;-68
2021/01/17 03:21:29;;;;;;;20.17;9.25;;;;;;;-4.57;68.66;100353.39;2178359;81;27976;-67
2021/01/17 03:24:32;;;;;;;19.95;9.85;;;;;;;-4.64;68.33;100350.27;2178790;80;28821;-66
2021/01/17 03:27:35;;;;;;;21.93;10.32;;;;;;;-4.74;67.83;100354.48;2178542;81;31160;-65
2021/01/17 03:30:37;;;;;;;23.52;10.08;;;;;;;-4.92;67.46;100355.98;2184688;79;34035;-65
2021/01/17 03:33:39;;;;;;;23.73;10.32;;;;;;;-5.05;67.76;100360.59;2217460;80;30112;-66
2021/01/17 03:36:41;;;;;;;22.48;11.10;;;;;;;-5.17;67.67;100359.97;2208725;80;27780;-66
2021/01/17 03:39:43;;;;;;;24.45;12.23;;;;;;;-5.24;67.92;100364.62;2217228;79;28597;-66
2021/01/17 03:42:48;;;;;;;26.57;11.03;;;;;;;-5.38;67.63;100363.13;2217503;79;30996;-66
2021/01/17 03:45:50;;;;;;;26.45;12.88;;;;;;;-5.48;67.81;100363.39;2216610;79;33064;-66
2021/01/17 03:48:52;;;;;;;28.02;13.65;;;;;;;-5.61;67.65;100366.62;2217366;80;29159;-66
2021/01/17 03:51:54;;;;;;;30.12;13.55;;;;;;;-5.74;67.17;100370.77;2217634;80;27705;-67
2021/01/17 03:54:57;;;;;;;24.07;12.10;;;;;;;-5.89;67.59;100372.25;2207019;80;28824;-65
2021/01/17 03:57:59;;;;;;;35.33;12.33;;;;;;;-6.03;67.71;100373.72;2178674;81;32079;-67
2021/01/17 04:01:01;;;;;;;28.35;11.18;;;;;;;-6.14;67.75;100382.23;2186227;78;33119;-66
2021/01/17 04:04:03;;;;;;;23.00;12.95;;;;;;;-6.17;68.14;100383.91;2188593;78;29156;-66
2021/01/17 04:07:05;;;;;;;26.07;12.88;;;;;;;-6.14;68.56;100379.63;2180656;80;27720;-66
2021/01/17 04:10:08;;;;;;;24.70;11.85;;;;;;;-6.07;68.50;100395.41;2184652;80;28787;-65
2021/01/17 04:13:10;;;;;;;28.38;11.73;;;;;;;-6.05;68.27;100393.70;2178746;81;31112;-66
2021/01/17 04:16:13;;;;;;;24.10;11.63;;;;;;;-6.07;67.72;100399.31;2178682;81;33187;-66
2021/01/17 04:19:16;;;;;;;24.10;10.72;;;;;;;-6.18;67.54;100405.17;2189724;80;29158;-67
2021/01/17 04:22:19;;;;;;;28.42;12.33;;;;;;;-6.27;66.88;100405.86;2217578;80;27567;-65
2021/01/17 04:25:20;;;;;;;27.27;11.78;;;;;;;-6.38;67.27;100404.77;2207596;80;28800;-66
2021/01/17 04:28:23;;;;;;;21.93;11.22;;;;;;;-6.41;67.51;100414.72;2178823;81;31197;-65
2021/01/17 04:31:25;;;;;;;30.43;12.07;;;;;;;-6.41;67.57;100418.62;2178623;81;33266;-66
2021/01/17 04:34:27;;;;;;;27.87;13.25;;;;;;;-6.42;67.29;100422.08;2178453;81;29146;-66
2021/01/17 04:37:29;;;;;;;36.40;17.70;;;;;;;-6.46;67.45;100430.67;2179643;80;27777;-65
2021/01/17 04:40:32;;;;;;;29.55;12.45;;;;;;;-6.52;67.35;100427.92;2178296;81;30088;-65
2021/01/17 04:44:03;;;;;;;30.65;11.05;;;;;;;-6.60;67.29;100429.05;2178197;81;31032;-65
2021/01/17 04:47:06;;;;;;;25.17;11.57;;;;;;;-6.66;67.24;100436.75;2112746;84;32952;-65
2021/01/17 04:50:10;;;;;;;27.35;13.43;;;;;;;-6.80;67.37;100440.33;2076816;84;29227;-65
2021/01/17 04:53:14;;;;;;;29.77;13.43;;;;;;;-6.77;67.57;100446.02;2075109;85;27751;-65
2021/01/17 04:56:27;;;;;;;28.73;13.43;;;;;;;-6.75;67.81;100447.84;2092187;85;28805;-65
2021/01/17 04:59:36;;;;;;;43.17;19.30;;;;;;;-6.73;67.67;100455.68;2071604;85;31163;-65
2021/01/17 05:03:05;;;;;;;35.65;18.17;;;;;;;-6.73;66.98;100458.28;2048499;85;33986;-65
2021/01/17 05:06:29;;;;;;;30.48;14.35;;;;;;;-6.81;67.18;100459.41;2101037;84;30506;-64
2021/01/17 05:09:32;;;;;;;33.42;14.65;;;;;;;-7.03;66.73;100471.03;2091056;85;27838;-64
2021/01/17 05:12:53;;;;;;;63.13;31.65;;;;;;;-7.10;66.91;100470.01;2029711;85;29704;-64
2021/01/17 05:15:56;;;;;;;56.73;29.77;;;;;;;-7.21;66.83;100467.56;2011037;88;31233;-64
2021/01/17 05:18:59;;;;;;;55.67;25.20;;;;;;;-7.28;67.12;100465.23;2010099;88;33151;-63
2021/01/17 05:22:04;;;;;;;106.40;41.05;;;;;;;-7.30;67.20;100476.02;2025409;87;29256;-63
2021/01/17 05:25:08;;;;;;;71.07;29.72;;;;;;;-7.37;67.06;100480.19;2048664;85;27695;-63
2021/01/17 05:28:11;;;;;;;53.78;22.87;;;;;;;-7.46;67.19;100479.06;2075215;85;28859;-63
2021/01/17 05:31:19;;;;;;;45.33;19.27;;;;;;;-7.49;67.26;100477.23;2077866;85;32139;-63
2021/01/17 05:34:21;;;;;;;40.70;18.23;;;;;;;-7.51;67.29;100484.11;2077512;84;32984;-63
2021/01/17 05:37:24;;;;;;;46.18;20.95;;;;;;;-7.60;66.87;100486.48;2077706;84;29589;-63
2021/01/17 05:40:26;;;;;;;37.03;16.95;;;;;;;-7.77;66.29;100484.73;2077118;85;27862;-63
2021/01/17 05:43:28;;;;;;;38.63;15.38;;;;;;;-7.93;66.55;100490.77;2077512;85;28877;-63
2021/01/17 05:46:31;;;;;;;40.90;17.25;;;;;;;-8.06;66.35;100492.16;2076923;85;31597;-64
2021/01/17 05:49:33;;;;;;;42.38;17.50;;;;;;;-8.16;66.12;100490.11;2050358;86;33058;-63
2021/01/17 05:52:36;;;;;;;35.30;13.72;;;;;;;-8.37;65.31;100492.95;2047583;86;29106;-63
2021/01/17 05:55:42;;;;;;;37.17;15.95;;;;;;;-8.59;65.46;100492.31;2048566;86;27769;-64
2021/01/17 05:58:44;;;;;;;48.90;20.40;;;;;;;-8.72;65.77;100497.13;2081084;85;29330;-63
2021/01/17 06:01:46;;;;;;;65.45;24.00;;;;;;;-8.82;65.79;100507.17;2084542;85;31166;-63
2021/01/17 06:04:57;;;;;;;40.63;15.05;;;;;;;-8.86;65.98;100507.50;2017885;85;33931;-64
2021/01/17 06:07:59;;;;;;;52.88;19.05;;;;;;;-8.86;66.13;100513.59;2015480;88;29179;-63
2021/01/17 06:11:10;;;;;;;54.53;22.15;;;;;;;-8.87;66.18;100514.81;2015466;87;27684;-66
2021/01/17 06:14:19;;;;;;;50.23;20.30;;;;;;;-8.88;66.21;100523.03;2073589;85;28818;-63
2021/01/17 06:17:21;;;;;;;40.55;16.37;;;;;;;-8.87;66.20;100525.20;2083037;85;32205;-63
2021/01/17 06:20:26;;;;;;;30.80;13.50;;;;;;;-8.93;66.13;100528.91;2084419;84;33114;-63
2021/01/17 06:23:34;;;;;;;40.08;17.10;;;;;;;-8.95;66.07;100535.77;2084567;84;29106;-63
2021/01/17 06:26:35;;;;;;;43.10;15.58;;;;;;;-9.00;66.13;100545.97;2054675;85;27764;-63
2021/01/17 06:29:42;;;;;;;;;;;;;;;-9.03;66.15;100538.10;2053018;86;29766;-64
2021/01/17 06:32:48;;;;;;;32.78;13.48;;;;;;;-9.03;66.24;100548.48;2050273;85;31393;-64
2021/01/17 06:35:50;;;;;;;29.87;14.25;;;;;;;-9.04;66.30;100550.18;2049507;86;33073;-64
2021/01/17 06:38:52;;;;;;;28.57;13.70;;;;;;;-8.99;66.16;100561.14;2049802;86;29189;-63
2021/01/17 06:41:57;;;;;;;34.95;15.30;;;;;;;-8.97;66.23;100567.27;2049338;86;27683;-65
2021/01/17 06:45:05;;;;;;;48.13;17.37;;;;;;;-8.93;66.21;100569.15;2041866;86;27845;-65
2021/01/17 06:48:08;;;;;;;40.95;15.78;;;;;;;-8.98;65.85;100576.75;2032150;87;30511;-64
2021/01/17 06:51:20;;;;;;;42.90;18.17;;;;;;;-9.01;65.91;100571.45;2034008;87;33205;-64
2021/01/17 06:54:35;;;;;;;48.40;19.52;;;;;;;-9.06;65.89;100580.38;2017376;87;29064;-64
2021/01/17 06:57:37;;;;;;;49.67;20.48;;;;;;;-9.04;65.96;100584.34;2058924;84;27780;-66
2021/01/17 07:00:40;;;;;;;54.30;23.55;;;;;;;-9.01;66.05;100585.33;2050504;86;28881;-64
2021/01/17 07:04:02;;;;;;;57.45;23.45;;;;;;;-8.97;66.04;100586.30;2050504;85;32151;-66
2021/01/17 07:07:29;;;;;;;54.13;22.13;;;;;;;-8.90;66.10;100588.69;2050345;86;34410;-64
2021/01/17 07:10:42;;;;;;;53.33;21.37;;;;;;;-8.87;65.83;100594.00;2060766;85;29287;-64
2021/01/17 07:13:49;;;;;;;52.50;24.82;;;;;;;-8.88;65.84;100600.92;2084228;85;27694;-64
2021/01/17 07:16:53;;;;;;;49.85;21.85;;;;;;;-8.85;65.78;100607.48;2084792;85;28878;-64
2021/01/17 07:20:00;;;;;;;58.08;21.97;;;;;;;-8.80;65.82;100615.86;2081883;83;32013;-64
2021/01/17 07:23:05;;;;;;;72.53;30.35;;;;;;;-8.77;65.65;100614.27;2014746;88;33030;-64
2021/01/17 07:26:09;;;;;;;66.92;29.87;;;;;;;-8.76;65.44;100622.49;2068043;84;29224;-66
2021/01/17 07:29:17;;;;;;;66.47;25.88;;;;;;;-8.81;65.49;100627.97;2050729;86;27745;-67
2021/01/17 07:32:36;;;;;;;63.40;25.97;;;;;;;-8.82;65.32;100633.09;2050172;85;28830;-65
2021/01/17 07:35:42;;;;;;;56.00;20.15;;;;;;;-8.84;65.54;100638.24;2083513;85;32138;-64
2021/01/17 07:38:46;;;;;;;72.65;25.68;;;;;;;-8.89;65.15;100640.69;2080165;85;33092;-64
2021/01/17 07:41:50;;;;;;;50.98;21.90;;;;;;;-8.92;65.10;100639.67;2084430;85;30578;-64
2021/01/17 07:44:55;;;;;;;80.80;27.75;;;;;;;-8.95;65.16;100633.97;2056806;85;28236;-65
2021/01/17 07:47:59;;;;;;;62.50;24.05;;;;;;;-8.93;65.36;100632.31;2035169;85;28824;-66
2021/01/17 07:51:05;;;;;;;56.53;24.15;;;;;;;-8.83;65.84;100630.92;2071499;84;32153;-65
2021/01/17 07:54:24;;;;;;;60.90;29.10;;;;;;;-8.68;65.71;100638.77;2046039;84;33200;-65
2021/01/17 07:57:27;;;;;;;51.70;19.82;;;;;;;-8.56;65.54;100641.38;2068749;85;29166;-66
2021/01/17 08:00:29;;;;;;;49.73;19.35;;;;;;;-8.41;65.33;100643.54;2074069;85;27738;-66
2021/01/17 08:03:31;;;;;;;53.42;19.57;;;;;;;-8.36;65.14;100642.81;2069910;86;29719;-66
2021/01/17 08:06:42;;;;;;;42.93;19.35;;;;;;;-8.24;65.37;100645.80;2043935;86;31161;-65
2021/01/17 08:09:47;;;;;;;57.38;23.73;;;;;;;-8.06;65.13;100653.73;2035625;87;33104;-65
2021/01/17 08:12:50;;;;;;;57.50;23.65;;;;;;;-7.98;64.90;100654.44;2068663;84;29163;-66
2021/01/17 08:16:10;;;;;;;42.98;18.52;;;;;;;-7.87;64.94;100655.21;2035244;86;27695;-66
2021/01/17 08:19:18;;;;;;;43.33;17.98;;;;;;;-7.76;64.93;100653.81;2069825;85;28821;-66
2021/01/17 08:22:28;;;;;;;44.25;19.37;;;;;;;-7.70;64.63;100649.21;2083666;84;31194;-65
2021/01/17 08:25:55;;;;;;;38.50;16.05;;;;;;;-7.63;64.70;100646.84;2104537;84;33224;-67
2021/01/17 08:29:02;;;;;;;31.50;14.33;;;;;;;-7.58;64.50;100645.67;2104874;84;29983;-66
2021/01/17 08:32:08;;;;;;;48.58;20.05;;;;;;;-7.62;64.09;100652.94;2089722;82;27689;-68
2021/01/17 08:35:23;;;;;;;48.38;19.05;;;;;;;-7.66;64.12;100649.77;2072978;84;28868;-66
2021/01/17 08:38:25;;;;;;;38.63;17.40;;;;;;;-7.67;63.93;100656.68;2110885;84;32123;-65
2021/01/17 08:41:28;;;;;;;40.08;18.52;;;;;;;-7.72;64.05;100653.08;2109638;84;32274;-66
2021/01/17 08:44:32;;;;;;;37.10;18.90;;;;;;;-7.68;64.10;100656.22;2052999;86;30068;-65
2021/01/17 08:47:37;;;;;;;45.12;18.73;;;;;;;-7.59;64.26;100670.35;2081588;84;27756;-65
2021/01/17 08:50:39;;;;;;;43.42;20.23;;;;;;;-7.52;64.36;100677.09;2085672;85;28828;-65
2021/01/17 08:53:42;;;;;;;41.23;17.70;;;;;;;-7.44;64.15;100673.84;2075203;85;31166;-64
2021/01/17 08:56:45;;;;;;;52.00;20.70;;;;;;;-7.44;63.90;100685.55;2084604;85;34071;-65
2021/01/17 08:59:47;;;;;;;53.73;21.05;;;;;;;-7.49;63.79;100683.69;2084527;85;29177;-66
2021/01/17 09:02:53;;;;;;;59.48;21.97;;;;;;;-7.50;63.76;100681.92;2048030;85;27744;-67
2021/01/17 09:05:58;;;;;;;50.52;22.20;;;;;;;-7.53;63.34;100692.23;2053862;85;28830;-65
2021/01/17 09:09:06;;;;;;;45.92;19.27;;;;;;;-7.52;63.63;100697.00;2083750;85;32529;-65
2021/01/17 09:12:12;;;;;;;57.00;21.07;;;;;;;-7.51;63.81;100697.06;2059158;85;34577;-68
2021/01/17 09:15:19;;;;;;;55.33;25.68;;;;;;;-7.46;63.93;100693.30;2050312;86;29346;-65
2021/01/17 09:18:36;;;;;;;48.08;20.37;;;;;;;-7.43;63.60;100698.59;2063467;85;27764;-64
2021/01/17 09:21:39;;;;;;;57.83;22.67;;;;;;;-7.37;63.85;100699.20;2084709;85;28735;-65
2021/01/17 09:24:41;;;;;;;50.85;21.55;;;;;;;-7.32;63.49;100702.83;2084517;85;32053;-65
2021/01/17 09:27:43;;;;;;;57.40;21.48;;;;;;;-7.31;63.44;100705.89;2035551;85;34016;-65
2021/01/17 09:30:50;;;;;;;41.33;18.85;;;;;;;-7.28;63.60;100700.78;2056813;85;30074;-65
2021/01/17 09:33:55;;;;;;;37.25;16.77;;;;;;;-7.24;63.61;100698.71;2070672;85;27724;-64
2021/01/17 09:36:59;;;;;;;39.67;16.30;;;;;;;-7.12;63.65;100704.70;2084399;85;28748;-64
2021/01/17 09:40:04;;;;;;;38.73;15.78;;;;;;;-7.07;63.52;100707.03;2075975;85;31282;-64
2021/01/17 09:43:06;;;;;;;33.15;14.10;;;;;;;-7.00;63.48;100709.38;2050457;86;33203;-65
2021/01/17 09:46:10;;;;;;;43.55;18.23;;;;;;;-6.95;63.48;100706.50;2049569;85;29112;-63
2021/01/17 09:49:12;;;;;;;39.50;17.17;;;;;;;-6.92;62.96;100710.47;2045149;87;27670;-65
2021/01/17 09:52:21;;;;;;;42.33;19.07;;;;;;;-6.94;62.96;100717.34;2013121;86;29045;-64
2021/01/17 09:55:23;;;;;;;41.28;18.85;;;;;;;-6.95;62.98;100712.11;2012118;88;31413;-64
2021/01/17 09:58:25;;;;;;;46.13;18.23;;;;;;;-6.90;63.06;100719.21;1978451;90;33287;-64
2021/01/17 10:01:28;;;;;;;44.88;20.37;;;;;;;-6.88;63.14;100718.84;2032271;84;30174;-64
2021/01/17 10:04:30;;;;;;;54.27;25.32;;;;;;;-6.81;63.11;100719.02;2039669;87;27663;-64
2021/01/17 10:07:32;;;;;;;39.63;18.48;;;;;;;-6.80;62.96;100721.66;2040139;87;30103;-64
2021/01/17 10:10:44;;;;;;;49.65;20.12;;;;;;;-6.71;62.95;100717.12;2068586;84;32213;-65
2021/01/17 10:13:49;;;;;;;55.20;21.87;;;;;;;-6.67;62.98;100721.59;2072733;85;34029;-64
2021/01/17 10:16:54;;;;;;;43.25;18.32;;;;;;;-6.61;62.75;100726.94;2074197;85;30221;-64
2021/01/17 10:19:56;;;;;;;;;;;;;;;-6.60;62.72;100730.02;2078273;84;27791;-64
2021/01/17 10:23:05;;;;;;;48.92;20.05;;;;;;;-6.58;62.65;100737.45;2074064;85;28808;-64
2021/01/17 10:26:08;;;;;;;46.85;20.35;;;;;;;-6.60;62.79;100735.22;2074159;85;32091;-66
2021/01/17 10:29:10;;;;;;;47.73;20.95;;;;;;;-6.56;62.58;100736.22;2044005;86;33183;-64
2021/01/17 10:32:14;;;;;;;50.45;20.97;;;;;;;-6.54;62.67;100742.76;2042665;85;29188;-65
2021/01/17 10:35:21;;;;;;;48.50;20.53;;;;;;;-6.58;62.22;100740.06;2010168;88;27824;-65
2021/01/17 10:38:24;;;;;;;49.38;22.02;;;;;;;-6.60;62.08;100744.78;2022637;87;44046;-65
2021/01/17 10:41:27;;;;;;;47.83;21.93;;;;;;;-6.59;62.53;100742.64;2042664;87;30963;-65
2021/01/17 10:44:33;;;;;;;53.55;22.35;;;;;;;-6.52;62.25;100747.16;2043002;87;33179;-65
2021/01/17 10:48:08;;;;;;;61.65;25.97;;;;;;;-6.48;62.36;100750.75;2039373;86;29170;-65
2021/01/17 10:51:39;;;;;;;58.70;25.85;;;;;;;-6.43;62.55;100747.42;2010450;88;28149;-64
2021/01/17 10:54:42;;;;;;;76.30;27.90;;;;;;;-6.44;62.23;100750.88;2050388;86;29787;-65
2021/01/17 10:57:44;;;;;;;69.60;29.95;;;;;;;-6.47;61.97;100746.00;2079161;85;31234;-65
2021/01/17 11:00:54;;;;;;;75.15;28.02;;;;;;;-6.46;62.04;100751.69;2078958;85;33180;-67
2021/01/17 11:04:00;;;;;;;70.95;29.75;;;;;;;-6.50;62.09;100751.12;2073899;84;30071;-66
2021/01/17 11:07:03;;;;;;;66.33;26.23;;;;;;;-6.53;61.98;100754.52;2114432;84;27634;-66
2021/01/17 11:10:14;;;;;;;50.30;20.90;;;;;;;-6.53;61.71;100748.44;2114350;84;29686;-66
2021/01/17 11:13:16;;;;;;;63.73;26.50;;;;;;;-6.56;61.96;100747.94;2113469;84;31229;-66
2021/01/17 11:16:41;;;;;;;53.25;21.95;;;;;;;-6.56;61.80;100748.80;2114073;84;32395;-65
2021/01/17 11:19:43;;;;;;;50.75;20.90;;;;;;;-6.64;61.78;100756.84;2114293;84;29168;-67
2021/01/17 11:22:46;;;;;;;54.88;25.37;;;;;;;-6.64;61.37;100761.16;2114494;84;27592;-66
2021/01/17 11:26:04;;;;;;;68.60;31.68;;;;;;;-6.68;61.81;100760.60;2131248;82;28804;-66
2021/01/17 11:29:14;;;;;;;58.23;25.10;;;;;;;-6.75;61.37;100764.77;2116633;84;31142;-66
2021/01/17 11:32:36;;;;;;;61.80;26.25;;;;;;;-6.87;61.13;100760.98;2141637;82;33121;-65
2021/01/17 11:35:40;;;;;;;66.00;25.88;;;;;;;-6.95;61.66;100761.19;2152041;82;30164;-68
2021/01/17 11:38:50;;;;;;;56.88;24.52;;;;;;;-7.08;61.34;100760.34;2153469;82;27759;-67
2021/01/17 11:41:55;;;;;;;54.93;25.32;;;;;;;-7.17;61.45;100763.55;2152041;82;29691;-66
2021/01/17 11:44:59;;;;;;;51.00;22.48;;;;;;;-7.18;61.89;100767.89;2153286;82;31114;-67
2021/01/17 11:48:01;;;;;;;59.77;27.32;;;;;;;-7.05;62.17;100764.34;2119098;82;34132;-66
2021/01/17 11:51:08;;;;;;;65.65;27.37;;;;;;;-7.05;61.74;100757.44;2116727;84;29184;-65
2021/01/17 11:54:14;;;;;;;75.65;33.18;;;;;;;-6.99;61.95;100754.12;2103904;84;27728;-67
2021/01/17 11:57:16;;;;;;;64.10;25.95;;;;;;;-6.96;61.74;100749.41;2124916;83;28807;-67
2021/01/17 12:00:19;;;;;;;61.50;27.98;;;;;;;-7.00;61.64;100748.84;2136735;81;31086;-67
2021/01/17 12:03:26;;;;;;;63.70;29.90;;;;;;;-7.05;61.78;100742.21;2136736;83;33153;-67
2021/01/17 12:06:29;;;;;;;68.83;32.60;;;;;;;-7.08;61.66;100731.30;2136559;83;30030;-67
2021/01/17 12:09:32;;;;;;;68.72;28.90;;;;;;;-7.15;61.35;100725.87;2130380;83;27762;-67
2021/01/17 12:12:37;;;;;;;71.37;30.48;;;;;;;-7.16;61.87;100730.17;2136537;83;28913;-67
2021/01/17 12:15:39;;;;;;;68.63;27.33;;;;;;;-7.11;61.67;100729.03;2133102;83;31154;-67
2021/01/17 12:18:41;;;;;;;67.03;29.35;;;;;;;-7.08;61.70;100731.30;2129274;83;33555;-67
2021/01/17 12:21:46;;;;;;;58.78;25.48;;;;;;;-7.08;61.69;100731.30;2101946;83;29164;-67
2021/01/17 12:24:48;;;;;;;54.48;20.25;;;;;;;-7.12;61.61;100734.64;2082503;84;37965;-67
2021/01/17 12:27:50;;;;;;;49.15;23.77;;;;;;;-7.12;61.82;100730.73;2117941;84;28855;-66
2021/01/17 12:30:52;;;;;;;65.05;27.40;;;;;;;-7.12;61.63;100729.88;2116968;84;31218;-66
2021/01/17 12:33:56;;;;;;;68.15;29.00;;;;;;;-7.17;61.78;100733.61;2132425;83;34176;-67
2021/01/17 12:36:59;;;;;;;65.65;26.80;;;;;;;-7.09;62.10;100729.93;2132464;83;29142;-66
2021/01/17 12:40:01;;;;;;;61.55;28.65;;;;;;;-7.02;61.89;100735.80;2119816;83;27802;-66
2021/01/17 12:43:03;;;;;;;65.10;26.37;;;;;;;-7.00;61.48;100737.12;2084744;85;28849;-67
2021/01/17 12:46:07;;;;;;;67.12;30.48;;;;;;;-7.07;61.70;100746.48;2042951;87;31666;-67
2021/01/17 12:49:10;;;;;;;63.45;31.17;;;;;;;-7.04;61.96;100746.58;2078728;85;33157;-67
2021/01/17 12:52:12;;;;;;;69.72;31.05;;;;;;;-7.00;61.97;100749.75;2080216;84;29163;-67
2021/01/17 12:55:15;;;;;;;76.62;29.65;;;;;;;-7.00;61.70;100753.66;2124501;82;27693;-66
2021/01/17 12:58:17;;;;;;;64.35;27.00;;;;;;;-7.00;61.75;100759.27;2152843;82;28811;-66
2021/01/17 13:01:19;;;;;;;69.27;29.37;;;;;;;-6.99;61.94;100768.44;2153119;82;32109;-67
2021/01/17 13:04:22;;;;;;;94.52;36.28;;;;;;;-6.89;62.05;100769.59;2152885;82;34055;-65
2021/01/17 13:07:24;;;;;;;64.87;26.73;;;;;;;-6.82;62.10;100767.61;2152181;82;29251;-66
2021/01/17 13:10:27;;;;;;;82.12;33.53;;;;;;;-6.73;62.03;100777.02;2153327;82;27573;-65
2021/01/17 13:13:33;;;;;;;74.42;28.25;;;;;;;-6.66;62.00;100778.47;2153314;82;29781;-66
2021/01/17 13:16:35;;;;;;;86.70;33.35;;;;;;;-6.62;61.76;100785.54;2153218;82;31216;-65
2021/01/17 13:19:38;;;;;;;63.60;27.80;;;;;;;-6.59;61.74;100797.36;2122281;82;33108;-68
2021/01/17 13:22:41;;;;;;;59.20;25.30;;;;;;;-6.53;61.91;100802.72;2127990;81;29224;-65
2021/01/17 13:25:45;;;;;;;69.15;28.15;;;;;;;-6.48;61.94;100797.67;2152911;82;27878;-65
2021/01/17 13:28:47;;;;;;;63.92;27.95;;;;;;;-6.43;61.72;100794.34;2152601;82;28795;-65
2021/01/17 13:31:51;;;;;;;71.72;31.37;;;;;;;-6.41;61.82;100788.75;2153150;82;31169;-65
2021/01/17 13:34:54;;;;;;;71.10;29.72;;;;;;;-6.38;61.86;100787.95;2152989;82;33551;-66
2021/01/17 13:37:56;;;;;;;65.30;28.73;;;;;;;-6.38;61.57;100787.08;2148363;82;29168;-65
2021/01/17 13:40:59;;;;;;;78.42;34.20;;;;;;;-6.36;61.77;100792.78;2116277;84;27766;-65
2021/01/17 13:44:01;;;;;;;68.92;29.92;;;;;;;-6.30;61.70;100792.06;2116592;84;28815;-65
2021/01/17 13:47:03;;;;;;;68.05;31.45;;;;;;;-6.35;61.44;100782.82;2116500;84;31171;-65
2021/01/17 13:50:08;;;;;;;70.08;31.57;;;;;;;-6.43;61.32;100790.84;2146911;82;33632;-65
2021/01/17 13:53:10;;;;;;;72.20;29.95;;;;;;;-6.47;61.23;100802.05;2148086;81;32877;-65
2021/01/17 13:56:12;;;;;;;81.20;37.65;;;;;;;-6.50;61.69;100808.03;2131748;83;27869;-66
2021/01/17 13:59:14;;;;;;;79.60;34.90;;;;;;;-6.50;61.46;100811.94;2132233;83;29802;-65
2021/01/17 14:02:17;;;;;;;78.50;30.37;;;;;;;-6.50;61.35;100821.06;2132462;83;31207;-65
2021/01/17 14:05:20;;;;;;;79.00;33.33;;;;;;;-6.57;61.19;100828.26;2089995;83;33205;-65